KSVE/SVE METAR and TAF weather

Enter ICAO airport designator
Station Type Date Time Source
KSVE METAR 2019/02/07 09:15 UTC NOAA

KSVE 070915Z AUTO 31003KT 10SM CLR M09/M11 A3022 RMK AO2


Station Type Date Time Source
KSVE Decoded METAR 2019/02/07 09:15 UTC NOAA

Susanville Municipal, CA, United States (KSVE) 40-23N 120-34W
Feb 07, 2019 - 04:15 AM EST / 2019.02.07 0915 UTC
Wind: from the NW (310 degrees) at 3 MPH (3 KT):0
Visibility: 10 mile(s):0
Sky conditions: clear
Temperature: 15 F (-9 C)
Dew Point: 12 F (-11 C)
Relative Humidity: 85%
Pressure (altimeter): 30.22 in. Hg (1023 hPa)
ob: KSVE 070915Z AUTO 31003KT 10SM CLR M09/M11 A3022 RMK AO2
cycle: 9

Station Type Date Time Source
KSVE TAF UTC NOAA

Error!


Example: see airport list